createdAt,value
2019-03-28T00:01:14.121Z,67.03
2019-03-28T00:03:44.265Z,67.11
2019-03-28T00:06:11.555Z,67.40
2019-03-28T00:08:38.809Z,67.69
2019-03-28T00:11:06.311Z,67.69
2019-03-28T00:13:33.834Z,68.16
2019-03-28T00:16:01.207Z,67.92
2019-03-28T00:18:28.730Z,67.90
2019-03-28T00:20:56.407Z,68.18
2019-03-28T00:23:33.091Z,67.95
2019-03-28T00:26:00.397Z,68.06
2019-03-28T00:28:27.884Z,68.06
2019-03-28T00:30:55.170Z,67.92
2019-03-28T00:33:22.481Z,69.04
2019-03-28T00:35:50.257Z,69.93
2019-03-28T00:38:17.593Z,69.06
2019-03-28T00:40:44.971Z,68.62
2019-03-28T00:43:12.253Z,68.62
2019-03-28T00:45:39.529Z,68.51
2019-03-28T00:48:07.027Z,67.89
2019-03-28T00:50:34.485Z,67.89
2019-03-28T00:53:02.525Z,68.88
2019-03-28T00:55:29.833Z,68.59
2019-03-28T00:57:57.347Z,68.84
2019-03-28T01:00:24.749Z,67.41
2019-03-28T01:02:52.155Z,67.61
2019-03-28T01:05:19.426Z,67.61
2019-03-28T01:07:49.621Z,67.90
2019-03-28T01:10:16.921Z,68.07
2019-03-28T01:12:44.226Z,67.76
2019-03-28T01:15:11.514Z,68.50
2019-03-28T01:17:38.931Z,68.50
2019-03-28T01:20:06.851Z,68.57
2019-03-28T01:22:34.169Z,68.29
2019-03-28T01:25:01.888Z,68.21
2019-03-28T01:27:29.415Z,67.94
2019-03-28T01:29:57.279Z,67.78
2019-03-28T01:32:24.685Z,68.10
2019-03-28T01:34:51.995Z,69.44
2019-03-28T01:37:19.388Z,69.44
2019-03-28T01:39:46.767Z,68.86
2019-03-28T01:42:14.177Z,68.86
2019-03-28T01:44:41.536Z,68.88
2019-03-28T01:47:08.843Z,69.35
2019-03-28T01:49:36.118Z,69.35
2019-03-28T01:52:04.358Z,69.85
2019-03-28T01:54:32.080Z,69.40
2019-03-28T01:57:10.248Z,69.86
2019-03-28T01:59:28.545Z,69.87
2019-03-28T02:01:55.903Z,69.49
2019-03-28T02:04:23.631Z,69.49
2019-03-28T02:06:50.924Z,70.25
2019-03-28T02:09:18.235Z,69.69
2019-03-28T02:11:45.646Z,69.49
2019-03-28T02:14:12.908Z,69.45
2019-03-28T02:16:40.280Z,69.44
2019-03-28T02:19:07.674Z,70.22
2019-03-28T02:21:35.920Z,70.22
2019-03-28T02:24:03.309Z,70.12
2019-03-28T02:26:30.598Z,70.23
2019-03-28T02:28:58.062Z,70.99
2019-03-28T02:31:25.417Z,70.57
2019-03-28T02:33:52.685Z,70.40
2019-03-28T02:36:19.957Z,71.38
2019-03-28T02:38:47.353Z,71.09
2019-03-28T02:41:15.044Z,71.09
2019-03-28T02:43:42.331Z,70.47
2019-03-28T02:46:09.619Z,70.25
2019-03-28T02:48:36.901Z,70.80
2019-03-28T02:51:04.241Z,70.54
2019-03-28T02:53:33.402Z,70.85
2019-03-28T02:56:00.700Z,70.64
2019-03-28T02:58:27.975Z,72.16
2019-03-28T03:00:55.226Z,73.36
2019-03-28T03:03:22.607Z,72.48
2019-03-28T03:05:49.920Z,71.68
2019-03-28T03:08:17.281Z,70.98
2019-03-28T03:10:44.626Z,70.68
2019-03-28T03:13:11.910Z,70.90
2019-03-28T03:15:39.702Z,70.87
2019-03-28T03:18:08.888Z,71.15
2019-03-28T03:20:36.150Z,71.39
2019-03-28T03:23:05.614Z,71.13
2019-03-28T03:25:32.920Z,71.01
2019-03-28T03:28:00.254Z,70.57
2019-03-28T03:30:27.573Z,70.72
2019-03-28T03:32:55.100Z,70.59
2019-03-28T03:35:22.556Z,71.46
2019-03-28T03:37:49.943Z,71.52
2019-03-28T03:40:17.540Z,71.47
2019-03-28T03:42:44.960Z,71.97
2019-03-28T03:45:12.589Z,71.76
2019-03-28T03:47:43.608Z,72.12
2019-03-28T03:50:16.340Z,72.58
2019-03-28T03:52:43.596Z,72.77
2019-03-28T03:55:10.977Z,72.52
2019-03-28T03:57:38.359Z,72.64
2019-03-28T04:00:06.184Z,72.39
2019-03-28T04:02:33.680Z,71.73
2019-03-28T04:05:03.738Z,71.79
2019-03-28T04:07:30.995Z,72.04
2019-03-28T04:09:58.285Z,71.91
2019-03-28T04:12:28.718Z,72.00
2019-03-28T04:14:56.014Z,72.08
2019-03-28T04:17:23.321Z,72.25
2019-03-28T04:19:50.639Z,71.81
2019-03-28T04:22:17.911Z,71.55
2019-03-28T04:24:48.570Z,70.80
2019-03-28T04:27:15.982Z,71.64
2019-03-28T04:29:43.366Z,71.91
2019-03-28T04:32:10.841Z,71.84
2019-03-28T04:34:38.125Z,72.09
2019-03-28T04:37:06.514Z,72.23
2019-03-28T04:39:34.100Z,71.79
2019-03-28T04:42:01.360Z,71.71
2019-03-28T04:44:28.743Z,71.39
2019-03-28T04:46:56.034Z,71.40
2019-03-28T04:49:23.290Z,71.39
2019-03-28T04:51:51.774Z,71.55
2019-03-28T04:54:19.045Z,72.11
2019-03-28T04:56:46.427Z,72.17
2019-03-28T04:59:13.777Z,71.75
2019-03-28T05:01:41.155Z,71.69
2019-03-28T05:04:10.469Z,71.44
2019-03-28T05:06:38.214Z,71.40
2019-03-28T05:09:05.706Z,71.61
2019-03-28T05:11:36.642Z,71.77
2019-03-28T05:14:03.921Z,71.86
2019-03-28T05:16:31.197Z,71.61
2019-03-28T05:18:58.558Z,72.26
2019-03-28T05:21:25.970Z,72.31
2019-03-28T05:23:53.772Z,72.11
2019-03-28T05:26:21.256Z,72.50
2019-03-28T05:28:57.454Z,72.89
2019-03-28T05:31:17.843Z,72.72
2019-03-28T05:33:45.111Z,72.64
2019-03-28T05:36:12.524Z,72.58
2019-03-28T05:38:39.791Z,71.93
2019-03-28T05:41:07.182Z,72.26
2019-03-28T05:43:37.392Z,72.02
2019-03-28T05:46:05.024Z,71.87
2019-03-28T05:48:32.666Z,72.31
2019-03-28T05:51:00.274Z,72.20
2019-03-28T05:53:27.547Z,72.45
2019-03-28T05:55:54.936Z,72.92
2019-03-28T05:58:22.468Z,72.54
2019-03-28T06:00:51.428Z,72.03
2019-03-28T06:03:18.862Z,71.84
2019-03-28T06:05:46.320Z,72.03
2019-03-28T06:08:13.709Z,72.46
2019-03-28T06:10:43.207Z,72.19
2019-03-28T06:13:10.460Z,72.01
2019-03-28T06:15:40.817Z,71.34
2019-03-28T06:18:07.515Z,71.59
2019-03-28T06:20:35.070Z,71.67
2019-03-28T06:23:02.331Z,71.60
2019-03-28T06:25:29.866Z,71.77
2019-03-28T06:27:57.166Z,71.65
2019-03-28T06:30:25.202Z,71.37
2019-03-28T06:32:52.570Z,71.06
2019-03-28T06:35:21.916Z,70.70
2019-03-28T06:37:59.512Z,71.01
2019-03-28T06:40:22.818Z,70.30
2019-03-28T06:42:52.437Z,70.40
2019-03-28T06:45:19.998Z,70.39
2019-03-28T06:47:47.304Z,69.55
2019-03-28T06:50:14.700Z,69.99
2019-03-28T06:52:42.258Z,69.66
2019-03-28T06:55:13.832Z,70.31
2019-03-28T06:57:41.219Z,70.31
2019-03-28T07:00:09.430Z,70.04
2019-03-28T07:02:36.748Z,70.45
2019-03-28T07:05:04.285Z,69.78
2019-03-28T07:07:36.372Z,70.20
2019-03-28T07:10:04.218Z,70.49
2019-03-28T07:12:31.616Z,70.93
2019-03-28T07:14:59.750Z,70.78
2019-03-28T07:17:27.365Z,70.52
2019-03-28T07:19:54.845Z,70.41
2019-03-28T07:22:22.255Z,70.49
2019-03-28T07:24:49.648Z,69.49
2019-03-28T07:27:19.396Z,69.20
2019-03-28T07:29:51.025Z,69.04
2019-03-28T07:32:15.995Z,68.92
2019-03-28T07:34:43.516Z,68.58
2019-03-28T07:37:10.818Z,68.58
2019-03-28T07:39:38.153Z,67.78
2019-03-28T07:42:08.374Z,67.26
2019-03-28T07:44:37.605Z,67.58
2019-03-28T07:47:05.295Z,66.67
2019-03-28T07:49:33.121Z,66.22
2019-03-28T07:52:01.484Z,66.86
2019-03-28T07:54:29.696Z,66.23
2019-03-28T07:56:57.063Z,66.23
2019-03-28T07:59:24.458Z,65.66
2019-03-28T08:01:52.297Z,64.52
2019-03-28T08:04:19.657Z,64.34
2019-03-28T08:06:50.200Z,64.34
2019-03-28T08:09:17.625Z,64.53
2019-03-28T08:11:49.145Z,64.53
2019-03-28T08:14:16.532Z,64.22
2019-03-28T08:16:44.105Z,63.59
2019-03-28T08:19:11.713Z,63.29
2019-03-28T08:21:38.971Z,63.36
2019-03-28T08:24:06.485Z,63.50
2019-03-28T08:26:33.809Z,63.45
2019-03-28T08:29:01.336Z,63.25
2019-03-28T08:31:33.423Z,63.28
2019-03-28T08:34:01.956Z,63.67
2019-03-28T08:36:29.389Z,63.50
2019-03-28T08:38:56.783Z,62.97
2019-03-28T08:41:24.113Z,62.29
2019-03-28T08:43:51.461Z,61.21
2019-03-28T08:46:19.359Z,61.49
2019-03-28T08:48:49.045Z,61.01
2019-03-28T08:51:19.497Z,60.29
2019-03-28T08:53:46.901Z,60.11
2019-03-28T08:56:16.110Z,59.82
2019-03-28T08:58:43.669Z,59.09
2019-03-28T09:01:11.115Z,59.24
2019-03-28T09:03:42.538Z,58.58
2019-03-28T09:06:09.941Z,58.45
2019-03-28T09:08:37.314Z,58.00
2019-03-28T09:11:05.913Z,57.22
2019-03-28T09:13:33.619Z,57.43
2019-03-28T09:16:00.927Z,56.44
2019-03-28T09:18:32.915Z,56.01
2019-03-28T09:21:00.614Z,55.56
2019-03-28T09:23:28.479Z,55.86
2019-03-28T09:25:56.031Z,55.44
2019-03-28T09:28:23.543Z,55.00
2019-03-28T09:30:51.102Z,53.91
2019-03-28T09:33:18.405Z,53.39
2019-03-28T09:35:46.288Z,52.32
2019-03-28T09:38:14.754Z,52.43
2019-03-28T09:40:42.206Z,52.06
2019-03-28T09:43:09.531Z,52.07
2019-03-28T09:45:36.914Z,51.98
2019-03-28T09:48:04.781Z,51.67
2019-03-28T09:50:32.336Z,51.44
2019-03-28T09:53:00.672Z,51.21
2019-03-28T09:55:28.319Z,51.33
2019-03-28T09:57:55.738Z,51.06
2019-03-28T10:00:27.203Z,50.27
2019-03-28T10:02:55.157Z,50.41
2019-03-28T10:05:25.122Z,48.78
2019-03-28T10:07:53.397Z,48.02
2019-03-28T10:10:20.821Z,47.52
2019-03-28T10:12:48.840Z,46.78
2019-03-28T10:15:16.261Z,47.39
2019-03-28T10:17:43.571Z,47.31
2019-03-28T10:20:11.143Z,47.29
2019-03-28T10:22:38.447Z,47.20
2019-03-28T10:25:06.517Z,47.57
2019-03-28T10:27:34.515Z,46.49
2019-03-28T10:30:06.622Z,46.77
2019-03-28T10:32:34.129Z,46.32
2019-03-28T10:35:01.880Z,46.98
2019-03-28T10:37:29.275Z,46.28
2019-03-28T10:39:59.820Z,46.21
2019-03-28T10:42:27.335Z,45.70
2019-03-28T10:44:54.757Z,45.75
2019-03-28T10:47:25.161Z,45.19
2019-03-28T10:49:52.901Z,44.58
2019-03-28T10:52:23.540Z,44.93
2019-03-28T10:55:02.431Z,45.77
2019-03-28T10:57:32.234Z,46.14
2019-03-28T11:00:00.804Z,45.90
2019-03-28T11:02:28.962Z,45.53
2019-03-28T11:04:56.849Z,45.65
2019-03-28T11:07:24.846Z,46.00
2019-03-28T11:09:53.539Z,46.77
2019-03-28T11:12:21.023Z,46.53
2019-03-28T11:14:48.591Z,44.89
2019-03-28T11:17:18.314Z,44.23
2019-03-28T11:19:48.054Z,44.03
2019-03-28T11:22:16.331Z,43.30
2019-03-28T11:24:46.306Z,43.10
2019-03-28T11:27:13.017Z,43.08
2019-03-28T11:29:42.807Z,43.33
2019-03-28T11:32:13.102Z,43.81
2019-03-28T11:34:40.885Z,43.35
2019-03-28T11:37:24.928Z,43.50
2019-03-28T11:39:40.025Z,42.81
2019-03-28T11:42:07.412Z,42.52
2019-03-28T11:44:39.359Z,42.08
2019-03-28T11:47:06.727Z,41.92
2019-03-28T11:49:34.581Z,41.06
2019-03-28T11:52:02.336Z,41.39
2019-03-28T11:54:29.869Z,41.32
2019-03-28T11:56:57.305Z,42.18
2019-03-28T11:59:24.759Z,42.47
2019-03-28T12:01:59.871Z,41.27
2019-03-28T12:04:21.568Z,42.80
2019-03-28T12:06:49.184Z,42.89
2019-03-28T12:09:17.825Z,43.33
2019-03-28T12:11:45.254Z,44.21
2019-03-28T12:14:12.672Z,43.50
2019-03-28T12:16:44.961Z,43.83
2019-03-28T12:19:17.794Z,43.05
2019-03-28T12:21:44.944Z,44.59
2019-03-28T12:24:16.059Z,45.71
2019-03-28T12:26:43.455Z,45.97
2019-03-28T12:29:10.913Z,45.66
2019-03-28T12:31:40.907Z,44.76
2019-03-28T12:34:08.330Z,45.56
2019-03-28T12:36:35.942Z,45.75
2019-03-28T12:39:04.388Z,45.29
2019-03-28T12:41:32.250Z,44.84
2019-03-28T12:43:59.642Z,44.14
2019-03-28T12:46:27.207Z,44.68
2019-03-28T12:48:54.836Z,45.01
2019-03-28T12:51:22.438Z,45.89
2019-03-28T12:53:49.746Z,46.35
2019-03-28T12:56:17.124Z,46.46
2019-03-28T12:58:45.291Z,45.29
2019-03-28T13:01:16.859Z,45.77
2019-03-28T13:03:45.712Z,45.52
2019-03-28T13:06:14.939Z,46.29
2019-03-28T13:08:42.373Z,45.57
2019-03-28T13:11:10.356Z,45.03
2019-03-28T13:13:39.556Z,44.28
2019-03-28T13:16:07.066Z,42.76
2019-03-28T13:18:37.853Z,43.52
2019-03-28T13:21:13.399Z,43.46
2019-03-28T13:23:34.708Z,43.32
2019-03-28T13:26:04.783Z,41.81
2019-03-28T13:28:32.649Z,41.01
2019-03-28T13:30:59.963Z,41.12
2019-03-28T13:33:32.477Z,41.96
2019-03-28T13:35:59.893Z,41.94
2019-03-28T13:38:27.730Z,41.67
2019-03-28T13:40:55.490Z,41.36
2019-03-28T13:43:23.012Z,41.27
2019-03-28T13:45:51.750Z,41.00
2019-03-28T13:48:19.294Z,40.17
2019-03-28T13:50:48.084Z,40.71
2019-03-28T13:53:15.755Z,41.06
2019-03-28T13:55:43.394Z,41.12
2019-03-28T13:58:13.805Z,40.12
2019-03-28T14:00:43.081Z,39.64
2019-03-28T14:03:13.308Z,39.57
2019-03-28T14:05:41.946Z,40.04
2019-03-28T14:08:09.262Z,39.85
2019-03-28T14:10:36.834Z,39.13
2019-03-28T14:13:04.110Z,39.09
2019-03-28T14:15:37.520Z,39.68
2019-03-28T14:18:23.511Z,39.04
2019-03-28T14:20:50.847Z,37.99
2019-03-28T14:23:18.625Z,38.04
2019-03-28T14:25:46.134Z,37.05
2019-03-28T14:28:13.436Z,36.12
2019-03-28T14:30:41.102Z,35.96
2019-03-28T14:33:11.529Z,36.33
2019-03-28T14:35:38.208Z,36.23
2019-03-28T14:38:05.718Z,37.47
2019-03-28T14:40:33.903Z,38.79
2019-03-28T14:43:01.384Z,38.49
2019-03-28T14:45:28.775Z,37.50
2019-03-28T14:47:56.187Z,37.43
2019-03-28T14:50:34.364Z,37.44
2019-03-28T14:53:08.996Z,38.38
2019-03-28T14:55:36.426Z,39.07
2019-03-28T14:58:04.498Z,39.00
2019-03-28T15:00:58.198Z,37.94
2019-03-28T15:03:27.429Z,37.53
2019-03-28T15:05:55.241Z,37.04
2019-03-28T15:08:23.510Z,35.64
2019-03-28T15:10:51.327Z,36.05
2019-03-28T15:13:18.627Z,34.72
2019-03-28T15:15:46.006Z,33.94
2019-03-28T15:18:13.677Z,34.05
2019-03-28T15:20:41.735Z,34.22
2019-03-28T15:23:09.025Z,34.86
2019-03-28T15:25:36.575Z,35.22
2019-03-28T15:28:06.768Z,35.66
2019-03-28T15:30:34.518Z,34.74
2019-03-28T15:33:03.501Z,33.71
2019-03-28T15:35:31.030Z,32.55
2019-03-28T15:38:10.103Z,32.41
2019-03-28T15:40:39.319Z,33.13
2019-03-28T15:43:06.874Z,32.97
2019-03-28T15:45:38.393Z,34.53
2019-03-28T15:48:06.192Z,36.42
2019-03-28T15:50:34.995Z,37.31
2019-03-28T15:53:11.551Z,37.39
2019-03-28T15:55:39.264Z,38.09
2019-03-28T15:58:06.769Z,39.46
2019-03-28T16:00:39.300Z,40.54
2019-03-28T16:03:09.828Z,40.50
2019-03-28T16:05:37.554Z,40.58
2019-03-28T16:08:05.500Z,40.76
2019-03-28T16:10:32.877Z,40.47
2019-03-28T16:13:00.518Z,40.19
2019-03-28T16:15:30.640Z,40.30
2019-03-28T16:17:59.326Z,40.61
2019-03-28T16:20:26.624Z,40.33
2019-03-28T16:22:55.007Z,40.83
2019-03-28T16:25:24.247Z,40.97
2019-03-28T16:27:54.094Z,42.03
2019-03-28T16:30:32.687Z,42.84
2019-03-28T16:33:02.089Z,42.76
2019-03-28T16:35:30.274Z,42.83
2019-03-28T16:37:59.757Z,42.58
2019-03-28T16:40:27.335Z,42.34
2019-03-28T16:42:54.918Z,42.23
2019-03-28T16:45:22.254Z,42.34
2019-03-28T16:47:51.103Z,42.21
2019-03-28T16:50:18.967Z,42.25
2019-03-28T16:52:48.218Z,41.78
2019-03-28T16:55:26.254Z,42.24
2019-03-28T16:57:49.705Z,42.25
2019-03-28T17:00:18.457Z,42.48
2019-03-28T17:02:46.093Z,42.74
2019-03-28T17:05:25.425Z,43.18
2019-03-28T17:07:53.224Z,43.57
2019-03-28T17:10:51.007Z,44.10
2019-03-28T17:13:18.401Z,44.36
2019-03-28T17:15:46.685Z,44.39
2019-03-28T17:18:14.425Z,44.75
2019-03-28T17:20:44.690Z,44.99
2019-03-28T17:23:12.091Z,44.79
2019-03-28T17:25:39.396Z,44.75
2019-03-28T17:28:06.695Z,44.80
2019-03-28T17:30:34.196Z,44.80
2019-03-28T17:33:01.708Z,44.97
2019-03-28T17:35:31.909Z,45.08
2019-03-28T17:38:01.597Z,45.07
2019-03-28T17:40:28.934Z,44.98
2019-03-28T17:42:58.080Z,45.15
2019-03-28T17:45:25.813Z,44.91
2019-03-28T17:47:53.837Z,45.03
2019-03-28T17:50:22.877Z,44.85
2019-03-28T17:52:50.625Z,45.00
2019-03-28T17:55:19.880Z,44.96
2019-03-28T17:57:47.529Z,44.83
2019-03-28T18:00:14.827Z,44.95
2019-03-28T18:02:42.810Z,45.07
2019-03-28T18:05:15.751Z,45.38
2019-03-28T18:07:42.149Z,45.57
2019-03-28T18:10:09.613Z,45.95
2019-03-28T18:12:39.709Z,45.98
2019-03-28T18:15:08.011Z,46.13
2019-03-28T18:17:37.348Z,46.44
2019-03-28T18:20:05.100Z,46.80
2019-03-28T18:22:32.876Z,47.67
2019-03-28T18:25:02.421Z,47.98
2019-03-28T18:27:37.439Z,48.62
2019-03-28T18:30:05.652Z,48.55
2019-03-28T18:32:34.815Z,48.76
2019-03-28T18:35:05.679Z,49.09
2019-03-28T18:37:32.533Z,49.16
2019-03-28T18:40:03.926Z,49.82
2019-03-28T18:42:29.730Z,50.16
2019-03-28T18:44:57.039Z,50.28
2019-03-28T18:47:26.341Z,50.71
2019-03-28T18:49:53.823Z,51.08
2019-03-28T18:52:21.117Z,51.10
2019-03-28T18:54:48.727Z,51.55
2019-03-28T18:57:16.059Z,51.71
2019-03-28T18:59:43.373Z,51.95
2019-03-28T19:02:10.935Z,52.09
2019-03-28T19:04:38.771Z,52.26
2019-03-28T19:07:10.731Z,52.41
2019-03-28T19:09:39.970Z,52.44
2019-03-28T19:12:07.359Z,52.64
2019-03-28T19:14:37.588Z,53.08
2019-03-28T19:17:04.858Z,53.03
2019-03-28T19:19:39.303Z,53.31
2019-03-28T19:22:01.503Z,53.63
2019-03-28T19:24:28.789Z,54.01
2019-03-28T19:26:56.315Z,54.18
2019-03-28T19:29:24.457Z,54.02
2019-03-28T19:31:51.740Z,54.06
2019-03-28T19:34:21.588Z,54.22
2019-03-28T19:36:49.405Z,54.23
2019-03-28T19:39:26.216Z,54.60
2019-03-28T19:41:53.521Z,54.39
2019-03-28T19:44:20.867Z,54.64
2019-03-28T19:46:48.285Z,54.66
2019-03-28T19:49:15.591Z,54.69
2019-03-28T19:51:47.644Z,54.89
2019-03-28T19:54:15.219Z,55.01
2019-03-28T19:56:42.703Z,55.19
2019-03-28T19:59:10.027Z,55.38
2019-03-28T20:01:37.305Z,55.72
2019-03-28T20:04:05.067Z,55.65
2019-03-28T20:06:33.249Z,55.60
2019-03-28T20:09:00.574Z,55.83
2019-03-28T20:11:27.988Z,55.89
2019-03-28T20:13:57.562Z,56.10
2019-03-28T20:16:25.890Z,56.38
2019-03-28T20:18:53.361Z,56.51
2019-03-28T20:21:20.794Z,56.47
2019-03-28T20:23:48.976Z,56.56
2019-03-28T20:26:19.519Z,56.59
2019-03-28T20:28:46.209Z,57.15
2019-03-28T20:31:13.601Z,57.04
2019-03-28T20:33:41.006Z,57.36
2019-03-28T20:36:35.669Z,57.47
2019-03-28T20:38:37.680Z,57.89
2019-03-28T20:41:05.557Z,58.16
2019-03-28T20:43:32.845Z,57.94
2019-03-28T20:46:00.227Z,58.10
2019-03-28T20:48:27.576Z,58.11
2019-03-28T20:50:54.992Z,58.44
2019-03-28T20:53:22.503Z,58.75
2019-03-28T20:55:49.899Z,59.11
2019-03-28T20:58:18.590Z,59.47
2019-03-28T21:00:46.554Z,59.47
2019-03-28T21:03:15.036Z,59.57
2019-03-28T21:05:42.889Z,59.77
2019-03-28T21:08:13.201Z,59.89
2019-03-28T21:10:40.555Z,60.63
2019-03-28T21:13:07.898Z,60.34
2019-03-28T21:15:37.720Z,60.19
2019-03-28T21:18:07.104Z,60.03
2019-03-28T21:20:34.499Z,59.87
2019-03-28T21:23:05.043Z,60.13
2019-03-28T21:25:31.349Z,60.31
2019-03-28T21:28:00.411Z,60.15
2019-03-28T21:30:28.545Z,60.22
2019-03-28T21:32:57.747Z,60.31
2019-03-28T21:35:25.558Z,60.39
2019-03-28T21:37:52.948Z,60.54
2019-03-28T21:40:20.266Z,60.66
2019-03-28T21:42:48.134Z,60.82
2019-03-28T21:45:16.346Z,60.87
2019-03-28T21:47:43.839Z,61.05
2019-03-28T21:50:11.299Z,61.50
2019-03-28T21:52:39.120Z,61.71
2019-03-28T21:55:06.599Z,61.85
2019-03-28T21:57:33.880Z,62.10
2019-03-28T22:00:01.202Z,62.47
2019-03-28T22:02:28.451Z,62.47
2019-03-28T22:04:55.846Z,62.44
2019-03-28T22:07:23.245Z,62.84
2019-03-28T22:09:51.164Z,62.80
2019-03-28T22:12:18.790Z,62.89
2019-03-28T22:14:48.179Z,63.20
2019-03-28T22:17:15.876Z,63.55
2019-03-28T22:19:43.381Z,63.54
2019-03-28T22:22:11.137Z,63.71
2019-03-28T22:24:39.244Z,63.82
2019-03-28T22:27:06.903Z,64.17
2019-03-28T22:29:34.718Z,64.32
2019-03-28T22:32:02.028Z,64.37
2019-03-28T22:34:29.315Z,64.39
2019-03-28T22:36:59.409Z,64.09
2019-03-28T22:39:25.850Z,64.48
2019-03-28T22:41:53.141Z,65.17
2019-03-28T22:44:20.628Z,65.03
2019-03-28T22:46:49.099Z,65.21
2019-03-28T22:49:16.880Z,65.36
2019-03-28T22:51:44.170Z,65.20
2019-03-28T22:54:11.474Z,65.26
2019-03-28T22:56:39.126Z,65.92
2019-03-28T22:59:06.388Z,66.01
2019-03-28T23:01:33.723Z,66.16
2019-03-28T23:04:01.006Z,66.57
2019-03-28T23:06:28.288Z,66.05
2019-03-28T23:08:55.598Z,66.01
2019-03-28T23:11:22.916Z,66.59
2019-03-28T23:13:50.290Z,66.77
2019-03-28T23:16:20.662Z,66.95
2019-03-28T23:18:47.994Z,67.25
2019-03-28T23:21:15.941Z,66.81
2019-03-28T23:23:43.624Z,66.67
2019-03-28T23:26:11.100Z,66.58
2019-03-28T23:28:38.515Z,66.78
2019-03-28T23:31:08.978Z,66.88
2019-03-28T23:33:36.619Z,67.40
2019-03-28T23:36:03.895Z,67.74
2019-03-28T23:38:31.332Z,67.83
2019-03-28T23:41:01.630Z,67.73
2019-03-28T23:43:28.905Z,67.99
2019-03-28T23:45:56.176Z,67.92
2019-03-28T23:48:23.452Z,68.19
2019-03-28T23:50:51.705Z,68.97
2019-03-28T23:53:19.351Z,69.48
2019-03-28T23:55:46.726Z,69.59
2019-03-28T23:58:13.987Z,69.63
